Crotts, Mississippi
Current Conditions -  °F | °C
As of 4:35 PM on Friday 24 Oct 2014 (Local Time) from KPIB Reporting Station
Clear Clear  
Wind Chill: 75°   Ceiling: Unl
Heat Index: 75°   Visibility: 10mi
Dew Point: 41°   Wind: 8mph
Humidity: 29%   Direction: 350°N
Pressure: 30.08"   Gusts: NA
Location:  31.5533°N, 89.2322°W
Report Text: KPIB 242135Z AUTO 35007KT 10SM CLR 24/05 A3008 RMK AO1
Loading
Personal Weather Stations






























Interactive Weather Map
Tropical Storm Tracking
New forecast layout! Learn more

10-Day Weather Forecast

Advertisements
Track Severe Weather on mobile